Portada
METAR-TAF:

METAR-TAF

Aeroports :

Funchal, Madeira, Portugal

latitud: 32-41-52N, longitud: 016-46-28W, altitud: 59 m

Observació

L'informe es va fer fa 35 minuts, a les 00:00 UTC
Vent 14 kt del Nord/Nord-Est amb ràfegues de 25 kt, variant entre Nord/Nord-Oest i Nord-Est
Temperatura 22°C
Humitat 69%
Pressió 1023 hPa
Visibilitat 10 km o més
Núvols disperses a una alçada de 1600 ft

METAR: LPMA 160000Z 02014G25KT 330V050 9999 SCT016 22/16 Q1023

Hora: 01:35 (00:35 UTC)

Pronòstic

L'informe es va fer fa 1 hora i 35 minuts, a les 23:00 UTC
Pronòstic vàlid del 16 a les 00 UTC al 16 a les 24 UTC
Vent 13 kt del Nord
Visibilitat 10 km o més
Núvols disperses a una alçada de 1600 ft
Temporalment
l' 16 a les 00 UTC al 16 a les 09 UTC
Vent 8 kt amb direcció variable amb ràfegues de 18 kt
Temporalment
l' 16 a les 09 UTC al 16 a les 24 UTC
Vent 18 kt del Nord amb ràfegues de 30 kt

TAF: LPMA 152300Z 1600/1624 01013KT 9999 SCT016 TEMPO 1600/1609 VRB08G18KT TEMPO 1609/1624 01018G30KT

Observacions i pronòstics meteorològics de més de 4000 aeroports (METAR i TAF).

Les estacions disponibles són els punts grocs i vermells al mapa.

Posi el ratolí al punt desitjat per veure el nom de l'estació.

Feu clic per veure les observacions i els pronòstics meteorològics.

Per canviar el mapa: feu clic els botons verds amb una creu de color negre per apropar; al botó verd amb un guió per allunyar la imatge; o en les fletxes verdes per a mapes adjacents.


METAR-TAF: